Archival Weather

General Ignacio P Garcia Intl

General Ignacio P Garcia Intl, Mexico (MMHO)

Report from: Tuesday, September 19, 2023 4:40 PM CST
Current time: Tuesday, July 16, 2024 10:20 AM CST

Current weather – Weather history – Daily summaries
Weather forecast

Temperature40.0°C (104.0°F)
Heat index41.0°C (105.7°F)
Dew point16.0°C (60.8°F)
Winds 9 kts (4.6 m/s, 10.4 mph) West-Southwest (240°)
Visibility10 mi. (16.1 km)
Clouds Sky clear
Altimeter29.79 in.Hg (1009 mB)
Relative humidity25 %
Density altitude3,208 ft. (978 m)
Flight conditions Visual Meteorological Conditions
Raw dataMMHO 192240Z 24009KT 10SM SKC 40/16 A2979 RMK HZY
An error has occurred. This application may no longer respond until reloaded. Reload 🗙